Time;durP1;ratioP1;P1;durP2;ratioP2;P2;SDS_P1;SDS_P2;PMS_P1;PMS_P2;Temp;Humidity;BMP_temperature;BMP_pressure;BME280_temperature;BME280_humidity;BME280_pressure;Samples;Min_cycle;Max_cycle;Signal;HPM_P1;HPM_P2
2023/06/01 00:02:05;;;;;;;5.03;1.85;;;13.50;99.90;;;;;;4911681;29;20155;-34
2023/06/01 00:04:31;;;;;;;10.23;2.20;;;13.50;99.90;;;;;;4912470;29;20551;-34
2023/06/01 00:06:59;;;;;;;4.38;1.80;;;13.50;99.90;;;;;;4908930;29;20060;-34
2023/06/01 00:09:25;;;;;;;6.80;1.73;;;13.40;99.90;;;;;;4904033;29;20419;-34
2023/06/01 00:11:51;;;;;;;5.95;1.88;;;13.40;99.90;;;;;;4902056;29;20056;-34
2023/06/01 00:14:16;;;;;;;8.23;2.08;;;13.30;99.90;;;;;;4905963;29;20058;-34
2023/06/01 00:16:42;;;;;;;7.10;2.22;;;13.20;99.90;;;;;;4906811;29;20062;-34
2023/06/01 00:19:08;;;;;;;5.65;1.83;;;13.30;99.90;;;;;;4904751;29;21703;-34
2023/06/01 00:21:35;;;;;;;8.15;2.40;;;13.20;99.90;;;;;;4905128;29;20063;-34
2023/06/01 00:24:02;;;;;;;7.65;2.20;;;13.20;99.90;;;;;;4896956;29;20048;-34
2023/06/01 00:26:29;;;;;;;6.72;2.03;;;13.30;99.90;;;;;;4914475;29;20498;-34
2023/06/01 00:28:55;;;;;;;8.20;2.30;;;13.10;99.90;;;;;;4908114;29;20736;-34
2023/06/01 00:31:21;;;;;;;7.70;2.70;;;13.20;99.90;;;;;;4907185;29;20067;-34
2023/06/01 00:33:46;;;;;;;9.10;3.15;;;13.20;99.90;;;;;;4907888;29;20074;-34
2023/06/01 00:36:12;;;;;;;8.10;2.58;;;13.20;99.90;;;;;;4909318;29;20089;-34
2023/06/01 00:38:37;;;;;;;5.70;2.13;;;13.20;99.90;;;;;;4908354;29;20051;-34
2023/06/01 00:41:03;;;;;;;8.32;2.38;;;13.20;99.90;;;;;;4918148;29;20074;-34
2023/06/01 00:43:29;;;;;;;5.35;1.85;;;13.10;99.90;;;;;;4907598;29;20067;-34
2023/06/01 00:45:54;;;;;;;6.03;2.35;;;13.20;99.90;;;;;;4908465;29;20075;-34
2023/06/01 00:48:20;;;;;;;6.90;2.22;;;13.20;99.90;;;;;;4915358;29;20138;-34
2023/06/01 00:50:47;;;;;;;7.53;2.88;;;13.20;99.90;;;;;;4906906;29;20103;-34
2023/06/01 00:53:17;;;;;;;6.82;2.60;;;13.20;99.90;;;;;;4917649;29;20131;-34
2023/06/01 00:55:44;;;;;;;9.52;3.40;;;13.20;99.90;;;;;;4909331;29;20466;-34
2023/06/01 00:58:15;;;;;;;6.70;2.30;;;13.20;99.90;;;;;;4918418;29;20055;-34
2023/06/01 01:00:41;;;;;;;6.07;2.30;;;13.10;99.90;;;;;;4911750;29;20056;-34
2023/06/01 01:03:08;;;;;;;5.55;1.88;;;13.00;99.90;;;;;;4914376;29;20187;-34
2023/06/01 01:05:38;;;;;;;10.15;3.13;;;13.00;99.90;;;;;;4911277;29;20048;-35
2023/06/01 01:08:27;;;;;;;6.95;2.90;;;12.80;99.90;;;;;;4911129;29;20116;-34
2023/06/01 01:11:08;;;;;;;8.13;2.20;;;12.70;99.90;;;;;;4909146;29;20055;-35
2023/06/01 01:13:50;;;;;;;7.30;2.38;;;12.70;99.90;;;;;;4916079;29;20057;-34
2023/06/01 01:16:24;;;;;;;6.78;2.63;;;12.70;99.90;;;;;;4914736;29;20056;-34
2023/06/01 01:18:54;;;;;;;9.65;2.47;;;12.70;99.90;;;;;;4904754;29;20063;-34
2023/06/01 01:21:28;;;;;;;7.78;1.98;;;12.70;99.90;;;;;;4913155;29;21068;-35
2023/06/01 01:24:12;;;;;;;7.97;2.50;;;12.70;99.90;;;;;;4911352;29;20056;-35
2023/06/01 01:26:46;;;;;;;9.02;2.20;;;12.70;99.90;;;;;;4905007;29;20087;-34
2023/06/01 01:29:14;;;;;;;9.45;2.75;;;12.70;99.90;;;;;;4906825;29;20123;-35
2023/06/01 01:31:41;;;;;;;6.70;2.85;;;12.70;99.90;;;;;;4910893;29;20558;-34
2023/06/01 01:34:08;;;;;;;5.95;2.42;;;12.70;99.90;;;;;;4908236;29;20135;-34
2023/06/01 01:36:35;;;;;;;6.07;2.58;;;12.70;99.90;;;;;;4908066;29;20111;-35
2023/06/01 01:39:02;;;;;;;12.60;2.63;;;12.70;99.90;;;;;;4905191;29;20103;-34
2023/06/01 01:41:27;;;;;;;7.55;2.72;;;12.70;99.90;;;;;;4910524;29;20066;-34
2023/06/01 01:43:54;;;;;;;6.22;2.30;;;12.70;99.90;;;;;;4891367;29;20048;-35
2023/06/01 01:46:26;;;;;;;10.18;3.20;;;12.80;99.90;;;;;;4906055;29;20403;-34
2023/06/01 01:49:18;;;;;;;7.82;2.42;;;12.70;99.90;;;;;;4899166;29;20044;-34
2023/06/01 01:51:50;;;;;;;8.90;2.95;;;12.70;99.90;;;;;;4904450;29;20074;-34
2023/06/01 01:54:17;;;;;;;10.80;3.70;;;12.70;99.90;;;;;;4907247;29;20060;-34
2023/06/01 01:56:44;;;;;;;8.38;2.63;;;12.60;99.90;;;;;;4906304;29;20091;-34
2023/06/01 01:59:11;;;;;;;6.38;2.42;;;12.60;99.90;;;;;;4900534;29;20155;-34
2023/06/01 02:01:41;;;;;;;12.90;2.40;;;12.70;99.90;;;;;;4898869;29;20060;-35
2023/06/01 02:04:07;;;;;;;8.40;3.13;;;12.70;99.90;;;;;;4904753;29;20098;-34
2023/06/01 02:06:34;;;;;;;9.40;2.42;;;12.70;99.90;;;;;;4906426;29;20479;-35
2023/06/01 02:08:59;;;;;;;6.97;2.10;;;12.70;99.90;;;;;;4903027;29;20059;-35
2023/06/01 02:11:26;;;;;;;6.47;2.75;;;12.70;99.90;;;;;;4906534;29;20048;-34
2023/06/01 02:13:52;;;;;;;7.75;3.00;;;12.70;99.90;;;;;;4904594;29;20123;-35
2023/06/01 02:16:18;;;;;;;11.10;3.15;;;12.70;99.90;;;;;;4904669;29;20263;-34
2023/06/01 02:18:45;;;;;;;6.30;2.58;;;12.70;99.90;;;;;;4905112;29;20063;-34
2023/06/01 02:21:12;;;;;;;7.60;2.95;;;12.70;99.90;;;;;;4910007;29;20191;-34
2023/06/01 02:23:39;;;;;;;8.23;2.80;;;12.70;99.90;;;;;;4904987;28;20060;-34
2023/06/01 02:26:06;;;;;;;6.93;2.92;;;12.60;99.90;;;;;;4910296;29;20067;-34
2023/06/01 02:28:32;;;;;;;10.13;2.53;;;12.70;99.90;;;;;;4905117;29;20650;-34
2023/06/01 02:30:57;;;;;;;5.55;2.38;;;12.70;99.90;;;;;;4909670;29;20161;-34
2023/06/01 02:33:26;;;;;;;9.85;2.92;;;12.70;99.90;;;;;;4907554;29;20060;-34
2023/06/01 02:35:52;;;;;;;12.13;3.65;;;12.70;99.90;;;;;;4910873;29;20052;-34
2023/06/01 02:38:17;;;;;;;12.25;3.30;;;12.60;99.90;;;;;;4904080;29;20525;-34
2023/06/01 02:40:43;;;;;;;7.15;2.70;;;12.60;99.90;;;;;;4904116;29;20127;-34
2023/06/01 02:43:09;;;;;;;9.82;2.60;;;12.60;99.90;;;;;;4907226;29;20065;-34
2023/06/01 02:45:35;;;;;;;9.77;3.35;;;12.60;99.90;;;;;;4889820;29;20127;-34
2023/06/01 02:48:00;;;;;;;8.38;2.60;;;12.50;99.90;;;;;;4907524;29;20052;-34
2023/06/01 02:50:26;;;;;;;4.88;1.80;;;12.50;99.90;;;;;;4907080;29;20043;-34
2023/06/01 02:52:52;;;;;;;5.68;2.22;;;12.40;99.90;;;;;;4911654;29;20074;-34
2023/06/01 02:55:17;;;;;;;9.05;2.53;;;12.40;99.90;;;;;;4910724;29;20060;-34
2023/06/01 02:57:43;;;;;;;9.70;3.15;;;12.40;99.90;;;;;;4907768;29;20410;-34
2023/06/01 03:00:15;;;;;;;6.90;2.33;;;12.40;99.90;;;;;;4911913;29;20134;-34
2023/06/01 03:02:48;;;;;;;10.27;3.10;;;12.30;99.90;;;;;;4912775;29;20064;-34
2023/06/01 03:05:16;;;;;;;;;;;12.30;99.90;;;;;;4913379;29;20506;-34
2023/06/01 03:07:46;;;;;;;7.82;2.50;;;12.30;99.90;;;;;;4910294;29;19926;-34
2023/06/01 03:10:12;;;;;;;9.10;2.42;;;12.30;99.90;;;;;;4907602;29;20581;-34
2023/06/01 03:12:38;;;;;;;5.28;2.47;;;12.30;99.90;;;;;;4911598;29;20414;-34
2023/06/01 03:15:05;;;;;;;8.07;2.30;;;12.30;99.90;;;;;;4913427;29;20063;-34
2023/06/01 03:17:32;;;;;;;8.35;2.03;;;12.30;99.90;;;;;;4907507;29;20060;-34
2023/06/01 03:19:58;;;;;;;8.82;2.78;;;12.30;99.90;;;;;;4904267;29;20118;-34
2023/06/01 03:22:24;;;;;;;8.35;2.65;;;12.30;99.90;;;;;;4905228;29;20462;-34
2023/06/01 03:24:50;;;;;;;6.70;2.58;;;12.40;99.90;;;;;;4910757;29;20550;-34
2023/06/01 03:27:16;;;;;;;9.63;2.75;;;12.40;99.90;;;;;;4905560;29;20049;-34
2023/06/01 03:29:42;;;;;;;9.85;2.20;;;12.40;99.90;;;;;;4906465;29;20048;-34
2023/06/01 03:32:08;;;;;;;9.77;3.03;;;12.40;99.90;;;;;;4909702;29;20083;-34
2023/06/01 03:34:36;;;;;;;8.02;2.20;;;12.40;99.90;;;;;;4904912;29;20569;-34
2023/06/01 03:37:05;;;;;;;9.20;2.50;;;12.40;99.90;;;;;;4910619;29;20521;-34
2023/06/01 03:39:35;;;;;;;6.57;2.20;;;12.30;99.90;;;;;;4906409;29;20052;-34
2023/06/01 03:42:01;;;;;;;7.60;2.53;;;12.30;99.90;;;;;;4908457;29;20066;-34
2023/06/01 03:44:27;;;;;;;7.75;2.75;;;12.30;99.90;;;;;;4906655;29;20060;-34
2023/06/01 03:46:52;;;;;;;10.32;2.90;;;12.20;99.90;;;;;;4911623;29;20059;-34
2023/06/01 03:49:18;;;;;;;8.57;2.70;;;12.20;99.90;;;;;;4908386;29;20060;-34
2023/06/01 03:51:44;;;;;;;10.70;3.30;;;12.20;99.90;;;;;;4910439;29;20392;-34
2023/06/01 03:54:10;;;;;;;11.23;2.88;;;12.30;99.90;;;;;;4907621;29;20051;-34
2023/06/01 03:56:36;;;;;;;10.27;3.30;;;12.20;99.90;;;;;;4907977;29;20044;-34
2023/06/01 03:59:02;;;;;;;7.07;2.40;;;12.20;99.90;;;;;;4907080;29;20072;-34
2023/06/01 04:01:29;;;;;;;8.32;2.78;;;12.20;99.90;;;;;;4910084;29;20055;-34
2023/06/01 04:03:56;;;;;;;9.60;2.72;;;12.20;99.90;;;;;;4905433;29;20052;-34
2023/06/01 04:06:22;;;;;;;5.82;2.58;;;12.30;99.90;;;;;;4910010;29;20076;-34
2023/06/01 04:08:55;;;;;;;8.00;2.50;;;12.20;99.90;;;;;;4908678;29;20048;-34
2023/06/01 04:11:22;;;;;;;5.75;2.63;;;12.20;99.90;;;;;;4912419;29;20048;-34
2023/06/01 04:13:48;;;;;;;9.45;2.38;;;12.20;99.90;;;;;;4912002;29;21695;-34
2023/06/01 04:16:15;;;;;;;7.25;2.00;;;12.20;99.90;;;;;;4912966;29;20058;-34
2023/06/01 04:18:41;;;;;;;8.98;2.70;;;12.20;99.90;;;;;;4906868;29;20100;-34
2023/06/01 04:21:08;;;;;;;8.07;3.10;;;12.20;99.90;;;;;;4905619;29;20055;-35
2023/06/01 04:23:35;;;;;;;6.82;2.00;;;12.20;99.90;;;;;;4912295;29;20510;-34
2023/06/01 04:26:02;;;;;;;8.18;2.15;;;12.20;99.90;;;;;;4912110;29;20086;-34
2023/06/01 04:28:28;;;;;;;7.68;2.10;;;12.30;99.90;;;;;;4913197;29;20060;-34
2023/06/01 04:30:54;;;;;;;8.48;2.50;;;12.30;99.90;;;;;;4916966;29;20135;-34
2023/06/01 04:33:22;;;;;;;8.63;2.30;;;12.30;99.90;;;;;;4912874;29;20135;-34
2023/06/01 04:35:48;;;;;;;6.88;2.15;;;12.20;99.90;;;;;;4912766;29;20143;-33
2023/06/01 04:38:16;;;;;;;5.22;2.00;;;12.30;99.90;;;;;;4908279;29;20506;-34
2023/06/01 04:40:44;;;;;;;7.82;2.50;;;12.40;99.90;;;;;;4913630;29;20084;-34
2023/06/01 04:43:11;;;;;;;6.00;2.13;;;12.40;99.90;;;;;;4907839;29;20110;-34
2023/06/01 04:45:38;;;;;;;8.52;2.10;;;12.50;99.90;;;;;;4896563;29;20196;-35
2023/06/01 04:48:08;;;;;;;7.70;1.80;;;12.50;99.90;;;;;;4912094;29;20067;-34
2023/06/01 04:50:34;;;;;;;5.72;2.13;;;12.50;99.90;;;;;;4900158;29;20060;-34
2023/06/01 04:53:00;;;;;;;6.30;2.50;;;12.50;99.90;;;;;;4905423;29;20141;-34
2023/06/01 04:55:26;;;;;;;3.83;1.80;;;12.50;99.90;;;;;;4909052;29;20060;-34
2023/06/01 04:57:52;;;;;;;6.20;2.03;;;12.50;99.90;;;;;;4912648;29;20051;-34
2023/06/01 05:00:18;;;;;;;6.82;2.05;;;12.50;99.90;;;;;;4913467;29;20075;-34
2023/06/01 05:02:46;;;;;;;6.78;2.22;;;12.50;99.90;;;;;;4905675;29;20071;-34
2023/06/01 05:05:12;;;;;;;6.07;1.75;;;12.50;99.90;;;;;;4918640;29;20048;-34
2023/06/01 05:07:39;;;;;;;5.35;1.77;;;12.50;99.90;;;;;;4911323;29;20048;-34
2023/06/01 05:10:06;;;;;;;4.82;2.03;;;12.60;99.90;;;;;;4903042;29;20076;-34
2023/06/01 05:12:33;;;;;;;4.53;1.98;;;12.50;99.90;;;;;;4908410;29;20052;-34
2023/06/01 05:15:00;;;;;;;5.65;1.77;;;12.70;99.90;;;;;;4913089;29;20055;-34
2023/06/01 05:17:26;;;;;;;6.40;2.08;;;12.60;99.90;;;;;;4904930;29;20048;-34
2023/06/01 05:19:51;;;;;;;7.57;1.70;;;12.60;99.90;;;;;;4908684;29;20052;-34
2023/06/01 05:22:17;;;;;;;6.68;1.95;;;12.70;99.90;;;;;;4914157;29;20529;-34
2023/06/01 05:24:43;;;;;;;4.95;1.50;;;12.60;99.90;;;;;;4908153;29;20418;-34
2023/06/01 05:27:08;;;;;;;6.07;1.70;;;12.60;99.90;;;;;;4906557;29;20056;-34
2023/06/01 05:29:34;;;;;;;5.93;2.28;;;12.70;99.90;;;;;;4907312;29;20601;-35
2023/06/01 05:32:00;;;;;;;4.68;1.73;;;12.70;99.90;;;;;;4907163;29;20052;-35
2023/06/01 05:34:26;;;;;;;5.35;1.67;;;12.80;99.90;;;;;;4911525;29;20383;-35
2023/06/01 05:36:51;;;;;;;4.55;1.90;;;12.80;99.90;;;;;;4894513;29;20489;-34
2023/06/01 05:39:17;;;;;;;7.22;1.50;;;12.80;99.90;;;;;;4900411;29;20044;-34
2023/06/01 05:41:42;;;;;;;8.07;2.08;;;12.80;99.90;;;;;;4903319;29;20052;-34
2023/06/01 05:44:08;;;;;;;6.20;1.60;;;12.90;99.90;;;;;;4906591;29;20491;-35
2023/06/01 05:46:34;;;;;;;5.75;1.80;;;12.90;99.90;;;;;;4907250;29;20060;-35
2023/06/01 05:49:00;;;;;;;4.03;1.77;;;13.00;99.90;;;;;;4903439;29;20562;-35
2023/06/01 05:51:25;;;;;;;6.45;1.60;;;12.90;99.90;;;;;;4904841;29;20047;-34
2023/06/01 05:53:51;;;;;;;6.85;1.60;;;13.00;99.90;;;;;;4912261;29;22104;-35
2023/06/01 05:56:17;;;;;;;7.38;1.92;;;13.00;99.90;;;;;;4905538;29;20090;-35
2023/06/01 05:58:43;;;;;;;12.57;2.22;;;13.00;99.90;;;;;;4906123;29;20059;-35
2023/06/01 06:01:10;;;;;;;6.68;1.67;;;13.00;99.90;;;;;;4903822;29;20493;-35
2023/06/01 06:03:36;;;;;;;6.28;2.05;;;13.00;99.90;;;;;;4903836;29;20055;-35
2023/06/01 06:06:02;;;;;;;5.03;1.65;;;13.00;99.90;;;;;;4909349;29;20439;-35
2023/06/01 06:08:29;;;;;;;7.70;2.00;;;13.00;99.90;;;;;;4906530;29;20052;-34
2023/06/01 06:10:55;;;;;;;4.40;1.67;;;13.00;99.90;;;;;;4908590;29;20060;-34
2023/06/01 06:13:20;;;;;;;4.65;1.30;;;13.00;99.90;;;;;;4888896;29;20154;-35
2023/06/01 06:15:46;;;;;;;4.90;1.58;;;13.00;99.90;;;;;;4906537;29;20083;-35
2023/06/01 06:18:11;;;;;;;8.05;1.80;;;13.00;99.90;;;;;;4891897;29;20059;-35
2023/06/01 06:20:37;;;;;;;8.80;1.80;;;13.10;99.90;;;;;;4897999;29;20079;-35
2023/06/01 06:23:03;;;;;;;6.68;2.15;;;13.10;99.90;;;;;;4895997;29;20535;-33
2023/06/01 06:25:28;;;;;;;10.23;1.52;;;13.10;99.90;;;;;;4901555;29;20056;-34
2023/06/01 06:27:54;;;;;;;8.63;1.73;;;13.20;99.90;;;;;;4902697;29;20599;-33
2023/06/01 06:30:20;;;;;;;7.88;2.08;;;13.30;99.90;;;;;;4902989;29;20462;-36
2023/06/01 06:32:46;;;;;;;5.47;2.67;;;13.40;99.90;;;;;;4902733;29;20095;-35
2023/06/01 06:35:12;;;;;;;4.82;1.63;;;13.40;99.90;;;;;;4901336;29;20053;-35
2023/06/01 06:37:40;;;;;;;10.43;2.40;;;13.40;99.90;;;;;;4899369;29;20071;-35
2023/06/01 06:40:06;;;;;;;10.93;2.40;;;13.40;99.90;;;;;;4896352;29;20062;-33
2023/06/01 06:42:32;;;;;;;7.68;2.03;;;13.50;99.90;;;;;;4901704;29;20056;-34
2023/06/01 06:44:58;;;;;;;3.92;1.27;;;13.40;99.90;;;;;;4900843;29;20052;-35
2023/06/01 06:47:24;;;;;;;9.85;1.70;;;13.50;99.90;;;;;;4895002;29;20110;-34
2023/06/01 06:49:51;;;;;;;6.70;2.25;;;13.60;99.90;;;;;;4899081;29;20550;-34
2023/06/01 06:52:17;;;;;;;6.10;1.75;;;13.70;99.90;;;;;;4896373;29;20064;-34
2023/06/01 06:54:43;;;;;;;5.80;1.50;;;13.80;99.90;;;;;;4901798;29;20048;-34
2023/06/01 06:57:09;;;;;;;9.07;3.10;;;13.70;99.90;;;;;;4899488;29;21344;-34
2023/06/01 06:59:35;;;;;;;5.00;1.67;;;13.70;99.90;;;;;;4882555;29;20063;-35
2023/06/01 07:02:01;;;;;;;5.95;1.63;;;13.70;99.90;;;;;;4879061;29;20147;-35
2023/06/01 07:04:30;;;;;;;5.35;1.35;;;13.70;99.90;;;;;;4904230;29;20127;-35
2023/06/01 07:06:56;;;;;;;5.18;1.40;;;13.70;99.90;;;;;;4903475;29;20055;-35
2023/06/01 07:09:21;;;;;;;5.32;1.30;;;13.70;99.90;;;;;;4904231;29;20060;-35
2023/06/01 07:11:47;;;;;;;5.35;1.55;;;13.80;99.90;;;;;;4905788;29;20064;-35
2023/06/01 07:14:14;;;;;;;3.50;1.25;;;13.80;99.90;;;;;;4903564;29;20083;-35
2023/06/01 07:16:40;;;;;;;2.80;1.23;;;13.80;99.90;;;;;;4902231;29;20062;-35
2023/06/01 07:19:07;;;;;;;5.90;1.67;;;13.90;99.90;;;;;;4902119;29;20143;-35
2023/06/01 07:21:33;;;;;;;7.28;1.80;;;14.00;99.90;;;;;;4903427;29;20059;-35
2023/06/01 07:23:58;;;;;;;6.50;1.42;;;14.10;99.90;;;;;;4906601;29;20063;-35
2023/06/01 07:26:26;;;;;;;4.90;1.73;;;14.10;99.90;;;;;;4905207;29;20082;-35
2023/06/01 07:28:53;;;;;;;6.80;1.55;;;14.20;99.90;;;;;;4906019;29;20048;-35
2023/06/01 07:31:22;;;;;;;5.70;1.88;;;14.20;99.90;;;;;;4904563;29;20062;-35
2023/06/01 07:33:48;;;;;;;5.05;1.80;;;14.30;99.90;;;;;;4909738;29;20048;-35
2023/06/01 07:36:14;;;;;;;4.68;1.95;;;14.40;99.90;;;;;;4901473;29;20055;-35
2023/06/01 07:38:40;;;;;;;6.32;1.70;;;14.40;99.90;;;;;;4908359;29;20403;-35
2023/06/01 07:41:06;;;;;;;4.45;1.60;;;14.40;99.90;;;;;;4907868;29;20063;-36
2023/06/01 07:43:31;;;;;;;4.20;1.48;;;14.40;99.90;;;;;;4903752;29;20088;-36
2023/06/01 07:45:57;;;;;;;5.00;1.38;;;14.50;99.90;;;;;;4905885;29;20056;-36
2023/06/01 07:48:23;;;;;;;8.35;2.10;;;14.50;99.90;;;;;;4904275;29;20058;-36
2023/06/01 07:50:50;;;;;;;4.22;1.50;;;14.40;99.90;;;;;;4903790;29;20052;-36
2023/06/01 07:53:17;;;;;;;8.30;2.30;;;14.50;99.90;;;;;;4906179;29;20396;-36
2023/06/01 07:55:43;;;;;;;7.10;1.50;;;14.60;99.90;;;;;;4907960;29;20542;-36
2023/06/01 07:58:09;;;;;;;8.60;2.53;;;14.60;99.90;;;;;;4904770;29;20132;-36
2023/06/01 08:00:35;;;;;;;9.07;2.17;;;14.70;99.90;;;;;;4905157;29;20062;-36
2023/06/01 08:03:06;;;;;;;3.35;1.48;;;14.80;99.90;;;;;;4902991;29;20063;-36
2023/06/01 08:05:34;;;;;;;4.63;1.83;;;14.90;99.90;;;;;;4903543;29;20056;-36
2023/06/01 08:08:00;;;;;;;5.60;1.60;;;15.00;99.90;;;;;;4905480;29;20051;-36
2023/06/01 08:10:26;;;;;;;5.13;1.88;;;15.20;99.90;;;;;;4903904;29;20101;-36
2023/06/01 08:12:55;;;;;;;6.13;1.52;;;15.10;99.90;;;;;;4905297;29;20079;-36
2023/06/01 08:15:23;;;;;;;6.85;2.00;;;15.00;99.90;;;;;;4904411;29;20150;-36
2023/06/01 08:17:50;;;;;;;8.82;1.63;;;15.00;99.90;;;;;;4896905;29;20052;-36
2023/06/01 08:20:21;;;;;;;6.75;1.60;;;14.90;99.90;;;;;;4896789;29;20082;-35
2023/06/01 08:22:46;;;;;;;5.07;1.50;;;15.00;99.90;;;;;;4896314;29;20055;-36
2023/06/01 08:25:14;;;;;;;8.95;1.50;;;15.10;99.90;;;;;;4903323;29;20052;-36
2023/06/01 08:27:40;;;;;;;3.83;1.40;;;15.10;99.90;;;;;;4900916;29;20135;-36
2023/06/01 08:30:07;;;;;;;6.20;1.67;;;15.20;99.90;;;;;;4904204;29;20093;-36
2023/06/01 08:32:32;;;;;;;6.22;1.42;;;15.30;99.90;;;;;;4901064;29;20570;-36
2023/06/01 08:34:58;;;;;;;7.22;1.55;;;15.30;99.90;;;;;;4886834;29;20055;-36
2023/06/01 08:37:24;;;;;;;8.13;1.80;;;15.40;99.90;;;;;;4900873;29;20434;-36
2023/06/01 08:39:50;;;;;;;3.72;1.95;;;15.50;99.90;;;;;;4900647;29;20148;-36
2023/06/01 08:42:32;;;;;;;5.30;1.60;;;15.50;99.90;;;;;;4903744;29;20045;-35
2023/06/01 08:44:58;;;;;;;6.05;1.42;;;15.60;99.90;;;;;;4902717;29;20055;-36
2023/06/01 08:47:27;;;;;;;4.22;1.33;;;15.70;99.90;;;;;;4895665;29;20085;-36
2023/06/01 08:49:54;;;;;;;5.38;1.83;;;15.70;99.90;;;;;;4900975;29;20083;-36
2023/06/01 08:52:22;;;;;;;5.60;1.70;;;15.70;99.90;;;;;;4898986;29;20490;-37
2023/06/01 08:54:48;;;;;;;6.60;1.77;;;15.80;99.90;;;;;;4903109;29;20052;-36
2023/06/01 08:57:15;;;;;;;4.40;1.40;;;15.70;99.90;;;;;;4892979;29;20582;-36
2023/06/01 08:59:41;;;;;;;5.68;1.52;;;15.70;99.90;;;;;;4896155;29;20052;-36
2023/06/01 09:02:08;;;;;;;3.70;1.20;;;15.70;99.90;;;;;;4898977;29;20421;-37
2023/06/01 09:04:35;;;;;;;5.88;1.52;;;15.80;99.90;;;;;;4895298;29;21541;-36
2023/06/01 09:07:02;;;;;;;4.70;1.55;;;16.00;99.90;;;;;;4897991;29;20048;-37
2023/06/01 09:09:28;;;;;;;4.22;1.40;;;16.00;99.90;;;;;;4896966;29;20090;-37
2023/06/01 09:12:26;;;;;;;6.20;1.60;;;16.00;99.90;;;;;;4896541;29;20121;-37
2023/06/01 09:15:07;;;;;;;5.30;1.38;;;16.10;99.90;;;;;;4897913;29;20432;-37
2023/06/01 09:17:33;;;;;;;5.18;1.50;;;16.20;99.90;;;;;;4897533;29;20056;-36
2023/06/01 09:19:58;;;;;;;3.50;1.17;;;16.20;99.90;;;;;;4894909;29;21121;-37
2023/06/01 09:22:24;;;;;;;6.45;1.52;;;16.30;99.90;;;;;;4897788;29;20115;-37
2023/06/01 09:24:58;;;;;;;4.20;1.65;;;16.30;99.90;;;;;;4904785;29;20059;-37
2023/06/01 09:27:24;;;;;;;3.85;1.67;;;16.30;99.90;;;;;;4902500;29;20057;-37
2023/06/01 09:29:54;;;;;;;5.72;1.10;;;16.40;99.90;;;;;;4912513;29;20052;-37
2023/06/01 09:32:21;;;;;;;1.83;0.60;;;16.40;99.90;;;;;;4907654;29;20107;-37
2023/06/01 09:34:47;;;;;;;2.38;1.23;;;16.30;99.90;;;;;;4901834;29;20047;-37
2023/06/01 09:37:13;;;;;;;7.35;0.90;;;16.20;99.90;;;;;;4903285;29;20059;-37
2023/06/01 09:39:39;;;;;;;5.97;1.63;;;16.20;99.90;;;;;;4904694;29;20083;-36
2023/06/01 09:42:08;;;;;;;3.20;1.00;;;16.30;99.90;;;;;;4904310;29;21652;-37
2023/06/01 09:44:39;;;;;;;2.88;1.15;;;16.20;99.90;;;;;;4906368;29;20403;-36
2023/06/01 09:47:11;;;;;;;2.53;1.00;;;16.20;99.90;;;;;;4907616;29;20059;-37
2023/06/01 09:49:41;;;;;;;4.38;1.10;;;16.10;99.90;;;;;;4904941;29;20051;-36
2023/06/01 09:52:07;;;;;;;3.50;0.90;;;16.10;99.90;;;;;;4899881;29;20060;-37
2023/06/01 09:54:37;;;;;;;3.20;1.15;;;16.00;99.90;;;;;;4904623;29;20498;-36
2023/06/01 09:57:04;;;;;;;3.13;1.08;;;15.90;99.90;;;;;;4897528;29;20058;-37
2023/06/01 09:59:44;;;;;;;2.67;1.05;;;15.90;99.90;;;;;;4902027;29;20052;-37
2023/06/01 10:02:17;;;;;;;3.72;1.27;;;15.90;99.90;;;;;;4899942;29;20060;-36
2023/06/01 10:04:54;;;;;;;3.40;1.17;;;15.80;99.90;;;;;;4901744;29;20060;-37
2023/06/01 10:07:21;;;;;;;4.15;1.25;;;15.70;99.90;;;;;;4897022;29;20060;-37
2023/06/01 10:09:57;;;;;;;4.82;1.40;;;15.70;99.90;;;;;;4903273;29;20122;-37
2023/06/01 10:12:24;;;;;;;5.18;1.40;;;15.60;99.90;;;;;;4894388;29;20561;-37
2023/06/01 10:14:50;;;;;;;3.50;1.52;;;15.70;99.90;;;;;;4896551;29;20060;-37
2023/06/01 10:17:17;;;;;;;3.00;1.25;;;15.50;99.90;;;;;;4893156;29;20836;-37
2023/06/01 10:19:43;;;;;;;4.65;1.88;;;15.40;99.90;;;;;;4898482;29;20107;-37
2023/06/01 10:22:10;;;;;;;4.00;1.40;;;15.30;99.90;;;;;;4891341;29;20064;-37
2023/06/01 10:24:40;;;;;;;3.33;1.20;;;15.40;99.90;;;;;;4897044;29;20108;-37
2023/06/01 10:27:11;;;;;;;3.53;1.23;;;15.50;99.90;;;;;;4895994;29;20490;-37
2023/06/01 10:29:37;;;;;;;2.55;1.17;;;15.60;99.90;;;;;;4895829;29;20051;-37
2023/06/01 10:32:03;;;;;;;4.10;1.52;;;15.50;99.90;;;;;;4897005;29;20108;-36
2023/06/01 10:34:44;;;;;;;4.25;1.38;;;15.40;99.90;;;;;;4896747;29;20110;-37
2023/06/01 10:37:15;;;;;;;6.20;1.27;;;15.30;99.90;;;;;;4898083;29;20067;-37
2023/06/01 10:39:41;;;;;;;3.05;1.08;;;15.20;99.90;;;;;;4898683;29;20123;-37
2023/06/01 10:42:12;;;;;;;3.63;1.38;;;15.20;99.90;;;;;;4897205;29;20064;-37
2023/06/01 10:44:38;;;;;;;6.43;1.60;;;15.30;99.90;;;;;;4906182;29;20062;-37
2023/06/01 10:47:05;;;;;;;4.07;1.70;;;15.30;99.90;;;;;;4906247;29;20415;-36
2023/06/01 10:49:48;;;;;;;7.72;1.67;;;15.30;99.90;;;;;;4904177;29;20091;-37
2023/06/01 10:52:34;;;;;;;2.67;1.20;;;15.40;99.90;;;;;;4901752;29;20533;-35
2023/06/01 10:55:06;;;;;;;3.10;1.40;;;15.20;99.90;;;;;;4903535;29;20044;-36
2023/06/01 10:57:35;;;;;;;3.73;1.60;;;15.30;99.90;;;;;;4900507;29;20566;-36
2023/06/01 11:00:14;;;;;;;4.05;1.52;;;15.20;99.90;;;;;;4903369;29;20056;-36
2023/06/01 11:02:48;;;;;;;6.82;1.75;;;15.10;99.90;;;;;;4901570;29;20506;-36
2023/06/01 11:05:38;;;;;;;5.88;2.00;;;15.10;99.90;;;;;;4899842;29;20122;-36
2023/06/01 11:08:05;;;;;;;7.25;2.00;;;15.10;99.90;;;;;;4899083;29;20080;-36
2023/06/01 11:10:53;;;;;;;6.85;1.67;;;15.20;99.90;;;;;;4900378;29;20056;-36
2023/06/01 11:13:33;;;;;;;3.92;1.73;;;15.20;99.90;;;;;;4896390;29;20075;-36
2023/06/01 11:16:09;;;;;;;7.45;2.13;;;15.40;99.90;;;;;;4896931;29;20055;-35
2023/06/01 11:18:43;;;;;;;9.07;1.92;;;15.40;99.90;;;;;;4905009;29;20064;-36
2023/06/01 11:21:21;;;;;;;6.85;1.52;;;15.40;99.90;;;;;;4902264;29;20071;-36
2023/06/01 11:23:47;;;;;;;5.50;1.60;;;15.50;99.90;;;;;;4901154;29;20056;-36
2023/06/01 11:26:21;;;;;;;7.78;1.65;;;15.70;99.90;;;;;;4894300;29;20121;-35
2023/06/01 11:28:47;;;;;;;6.85;1.73;;;15.80;99.90;;;;;;4889285;29;20052;-35
2023/06/01 11:31:19;;;;;;;5.20;1.92;;;15.80;99.90;;;;;;4894628;29;20060;-37
2023/06/01 11:33:53;;;;;;;5.72;1.65;;;15.80;99.90;;;;;;4900382;29;20068;-36
2023/06/01 11:36:24;;;;;;;9.50;1.67;;;15.90;99.90;;;;;;4896797;29;20067;-37
2023/06/01 11:38:51;;;;;;;7.25;1.60;;;16.00;99.90;;;;;;4895440;29;20048;-35
2023/06/01 11:41:20;;;;;;;7.28;1.23;;;15.90;99.90;;;;;;4909251;29;20083;-36
2023/06/01 11:43:56;;;;;;;6.47;1.50;;;16.00;99.90;;;;;;4909777;29;20059;-36
2023/06/01 11:46:23;;;;;;;7.15;2.28;;;16.00;99.90;;;;;;4904801;29;20052;-36
2023/06/01 11:49:04;;;;;;;4.93;2.17;;;16.10;99.90;;;;;;4907556;29;20079;-35
2023/06/01 11:51:38;;;;;;;5.90;1.67;;;16.00;99.90;;;;;;4905570;29;20052;-37
2023/06/01 11:54:05;;;;;;;5.15;2.00;;;15.90;99.90;;;;;;4910768;29;20517;-36
2023/06/01 11:56:33;;;;;;;5.45;1.52;;;15.90;99.90;;;;;;4906502;29;20064;-35
2023/06/01 11:59:08;;;;;;;4.97;1.52;;;16.00;99.90;;;;;;4907829;29;20115;-36
2023/06/01 12:01:35;;;;;;;5.40;1.70;;;16.00;99.90;;;;;;4906840;29;20060;-36
2023/06/01 12:04:02;;;;;;;5.13;1.67;;;16.00;99.90;;;;;;4899918;29;20056;-36
2023/06/01 12:06:27;;;;;;;10.15;1.90;;;16.20;99.90;;;;;;4896493;29;20195;-36
2023/06/01 12:08:55;;;;;;;4.88;1.95;;;16.30;99.90;;;;;;4903980;29;20585;-37
2023/06/01 12:11:28;;;;;;;8.85;1.60;;;16.20;99.90;;;;;;4900322;29;20386;-36
2023/06/01 12:13:55;;;;;;;6.22;1.80;;;16.30;99.90;;;;;;4898600;29;20048;-36
2023/06/01 12:16:21;;;;;;;9.32;1.95;;;16.40;99.90;;;;;;4896870;29;20040;-36
2023/06/01 12:18:47;;;;;;;5.55;1.80;;;16.40;99.90;;;;;;4902387;29;20044;-36
2023/06/01 12:21:13;;;;;;;6.88;1.80;;;16.30;99.90;;;;;;4904553;29;20494;-36
2023/06/01 12:23:39;;;;;;;3.90;1.70;;;16.30;99.90;;;;;;4898220;29;20056;-36
2023/06/01 12:26:06;;;;;;;7.78;1.85;;;16.30;99.90;;;;;;4897762;29;20059;-36
2023/06/01 12:28:54;;;;;;;5.00;1.88;;;16.40;99.90;;;;;;4903019;29;20521;-36
2023/06/01 12:31:21;;;;;;;3.92;1.70;;;16.50;99.90;;;;;;4899789;29;20063;-35
2023/06/01 12:33:50;;;;;;;7.38;2.15;;;16.70;99.90;;;;;;4901693;29;20495;-36
2023/06/01 12:36:32;;;;;;;4.43;1.70;;;16.80;99.90;;;;;;4896419;29;20104;-35
2023/06/01 12:38:59;;;;;;;4.53;1.90;;;16.90;99.90;;;;;;4900703;29;20067;-36
2023/06/01 12:41:25;;;;;;;8.35;2.30;;;16.90;99.90;;;;;;4898035;29;20052;-36
2023/06/01 12:43:52;;;;;;;4.57;1.85;;;17.10;99.90;;;;;;4901446;29;20115;-36
2023/06/01 12:46:22;;;;;;;6.10;2.03;;;17.20;99.90;;;;;;4898380;29;20560;-36
2023/06/01 12:48:48;;;;;;;5.30;1.80;;;17.00;99.90;;;;;;4896251;29;20150;-36
2023/06/01 12:51:15;;;;;;;9.02;2.33;;;17.00;99.90;;;;;;4901403;29;20058;-36